createdAt,value
2018-11-10T00:00:05.853Z,85.37
2018-11-10T00:02:33.802Z,84.67
2018-11-10T00:05:01.759Z,81.93
2018-11-10T00:07:29.729Z,83.70
2018-11-10T00:10:14.938Z,86.87
2018-11-10T00:12:42.950Z,84.63
2018-11-10T00:15:12.132Z,86.57
2018-11-10T00:17:40.073Z,83.93
2018-11-10T00:20:08.309Z,85.03
2018-11-10T00:22:36.963Z,83.57
2018-11-10T00:25:06.028Z,85.00
2018-11-10T00:27:33.966Z,85.40
2018-11-10T00:30:01.866Z,84.67
2018-11-10T00:32:29.774Z,87.23
2018-11-10T00:34:57.761Z,86.27
2018-11-10T00:37:25.731Z,85.03
2018-11-10T00:39:53.657Z,90.27
2018-11-10T00:42:21.579Z,91.93
2018-11-10T00:44:49.519Z,83.50
2018-11-10T00:47:17.482Z,86.53
2018-11-10T00:49:45.446Z,89.97
2018-11-10T00:52:13.395Z,88.40
2018-11-10T00:54:41.489Z,87.07
2018-11-10T00:57:09.460Z,84.00
2018-11-10T00:59:37.437Z,88.10
2018-11-10T01:02:05.971Z,87.97
2018-11-10T01:04:34.009Z,85.47
2018-11-10T01:07:01.976Z,82.93
2018-11-10T01:09:29.895Z,82.77
2018-11-10T01:11:57.831Z,83.37
2018-11-10T01:14:25.756Z,75.93
2018-11-10T01:16:53.691Z,81.70
2018-11-10T01:19:22.391Z,80.37
2018-11-10T01:21:50.316Z,79.00
2018-11-10T01:24:18.312Z,81.60
2018-11-10T01:26:46.223Z,75.83
2018-11-10T01:29:14.156Z,73.43
2018-11-10T01:31:42.089Z,73.67
2018-11-10T01:34:10.041Z,74.50
2018-11-10T01:36:37.957Z,75.83
2018-11-10T01:39:07.189Z,71.93
2018-11-10T01:41:35.138Z,71.13
2018-11-10T01:44:03.097Z,78.07
2018-11-10T01:46:31.346Z,72.70
2018-11-10T01:48:59.295Z,69.97
2018-11-10T01:51:27.288Z,70.27
2018-11-10T01:53:55.231Z,74.70
2018-11-10T01:56:23.219Z,73.07
2018-11-10T01:58:51.136Z,71.43
2018-11-10T02:01:19.068Z,67.80
2018-11-10T02:03:47.411Z,67.37
2018-11-10T02:06:15.327Z,68.00
2018-11-10T02:08:43.244Z,66.27
2018-11-10T02:11:11.292Z,68.27
2018-11-10T02:13:39.468Z,67.17
2018-11-10T02:16:07.415Z,68.00
2018-11-10T02:18:35.404Z,72.23
2018-11-10T02:21:03.436Z,65.87
2018-11-10T02:23:31.768Z,67.07
2018-11-10T02:25:59.787Z,65.77
2018-11-10T02:28:27.959Z,67.00
2018-11-10T02:30:55.900Z,65.67
2018-11-10T02:33:24.155Z,67.00
2018-11-10T02:35:52.054Z,67.53
2018-11-10T02:38:19.999Z,67.90
2018-11-10T02:40:48.524Z,69.50
2018-11-10T02:43:16.460Z,68.17
2018-11-10T02:45:44.364Z,65.60
2018-11-10T02:48:12.307Z,66.57
2018-11-10T02:50:40.202Z,60.20
2018-11-10T02:53:08.155Z,62.87
2018-11-10T02:55:36.090Z,60.77
2018-11-10T02:58:04.067Z,60.70
2018-11-10T03:00:32.080Z,63.93
2018-11-10T03:03:00.029Z,55.87
2018-11-10T03:05:27.934Z,57.00
2018-11-10T03:07:55.834Z,64.53
2018-11-10T03:10:23.795Z,62.43
2018-11-10T03:12:52.121Z,59.43
2018-11-10T03:15:20.144Z,57.27
2018-11-10T03:17:48.153Z,53.57
2018-11-10T03:20:16.051Z,53.67
2018-11-10T03:22:44.626Z,53.93
2018-11-10T03:25:12.577Z,50.50
2018-11-10T03:27:40.792Z,54.17
2018-11-10T03:30:08.798Z,52.60
2018-11-10T03:32:37.365Z,53.67
2018-11-10T03:35:05.832Z,50.50
2018-11-10T03:37:33.773Z,54.37
2018-11-10T03:40:02.012Z,55.47
2018-11-10T03:42:29.931Z,54.17
2018-11-10T03:44:57.844Z,53.23
2018-11-10T03:47:25.872Z,52.67
2018-11-10T03:49:54.740Z,58.70
2018-11-10T03:52:22.667Z,58.60
2018-11-10T03:54:50.614Z,57.83
2018-11-10T03:57:18.550Z,56.70
2018-11-10T03:59:46.482Z,55.77
2018-11-10T04:02:14.459Z,54.27
2018-11-10T04:04:42.451Z,55.40
2018-11-10T04:07:10.360Z,55.10
2018-11-10T04:09:38.283Z,59.20
2018-11-10T04:12:06.214Z,57.67
2018-11-10T04:14:34.138Z,57.87
2018-11-10T04:17:03.061Z,53.33
2018-11-10T04:19:31.548Z,52.93
2018-11-10T04:21:59.511Z,57.50
2018-11-10T04:24:27.494Z,56.23
2018-11-10T04:26:56.391Z,54.47
2018-11-10T04:29:24.680Z,52.10
2018-11-10T04:31:52.610Z,51.30
2018-11-10T04:34:20.536Z,54.50
2018-11-10T04:36:48.535Z,56.00
2018-11-10T04:39:16.487Z,51.80
2018-11-10T04:41:44.419Z,48.07
2018-11-10T04:44:12.330Z,50.60
2018-11-10T04:46:40.264Z,53.43
2018-11-10T04:49:08.348Z,51.40
2018-11-10T04:51:36.262Z,52.27
2018-11-10T04:54:04.587Z,48.87
2018-11-10T04:56:32.534Z,50.07
2018-11-10T04:59:00.568Z,49.57
2018-11-10T05:01:28.562Z,49.20
2018-11-10T05:03:56.527Z,49.90
2018-11-10T05:06:24.431Z,50.20
2018-11-10T05:08:52.449Z,51.47
2018-11-10T05:11:20.363Z,49.17
2018-11-10T05:13:48.319Z,49.80
2018-11-10T05:16:16.264Z,46.37
2018-11-10T05:18:44.201Z,48.20
2018-11-10T05:21:12.142Z,50.20
2018-11-10T05:23:40.074Z,46.83
2018-11-10T05:26:08.028Z,46.60
2018-11-10T05:28:35.947Z,47.40
2018-11-10T05:31:04.105Z,49.43
2018-11-10T05:33:32.000Z,49.87
2018-11-10T05:35:59.932Z,48.47
2018-11-10T05:38:27.873Z,50.77
2018-11-10T05:40:55.880Z,47.30
2018-11-10T05:43:23.829Z,48.67
2018-11-10T05:45:51.792Z,47.27
2018-11-10T05:48:19.749Z,49.10
2018-11-10T05:50:47.681Z,47.70
2018-11-10T05:53:15.619Z,48.53
2018-11-10T05:55:43.522Z,49.03
2018-11-10T05:58:11.445Z,47.23
2018-11-10T06:00:40.225Z,49.17
2018-11-10T06:03:08.265Z,48.40
2018-11-10T06:05:37.041Z,48.57
2018-11-10T06:08:04.988Z,46.13
2018-11-10T06:10:32.964Z,46.40
2018-11-10T06:13:01.689Z,45.20
2018-11-10T06:15:29.642Z,46.53
2018-11-10T06:17:57.592Z,44.77
2018-11-10T06:20:26.145Z,46.73
2018-11-10T06:22:54.101Z,42.70
2018-11-10T06:25:22.028Z,43.17
2018-11-10T06:27:50.918Z,42.77
2018-11-10T06:30:18.862Z,41.57
2018-11-10T06:32:46.913Z,41.93
2018-11-10T06:35:14.791Z,42.23
2018-11-10T06:37:42.708Z,43.13
2018-11-10T06:40:11.936Z,41.30
2018-11-10T06:42:40.230Z,41.17
2018-11-10T06:45:08.255Z,38.63
2018-11-10T06:47:36.560Z,39.70
2018-11-10T06:50:05.408Z,37.33
2018-11-10T06:52:34.336Z,39.33
2018-11-10T06:55:02.254Z,34.50
2018-11-10T06:57:30.197Z,35.83
2018-11-10T06:59:58.116Z,33.67
2018-11-10T07:02:26.171Z,36.30
2018-11-10T07:04:54.108Z,33.27
2018-11-10T07:07:22.079Z,35.73
2018-11-10T07:09:50.014Z,32.97
2018-11-10T07:12:17.965Z,33.70
2018-11-10T07:14:45.926Z,34.47
2018-11-10T07:17:13.929Z,34.27
2018-11-10T07:19:41.927Z,32.10
2018-11-10T07:22:09.889Z,31.87
2018-11-10T07:24:37.794Z,33.40
2018-11-10T07:27:05.795Z,34.60
2018-11-10T07:29:33.743Z,32.50
2018-11-10T07:32:01.890Z,34.10
2018-11-10T07:34:29.874Z,34.00
2018-11-10T07:36:57.847Z,32.40
2018-11-10T07:39:25.766Z,32.07
2018-11-10T07:41:53.758Z,33.93
2018-11-10T07:44:21.729Z,32.93
2018-11-10T07:46:49.655Z,32.03
2018-11-10T07:49:18.679Z,30.20
2018-11-10T07:51:46.628Z,31.30
2018-11-10T07:54:15.204Z,31.50
2018-11-10T07:56:43.133Z,30.63
2018-11-10T07:59:11.078Z,32.23
2018-11-10T08:01:38.979Z,31.90
2018-11-10T08:04:07.442Z,30.93
2018-11-10T08:06:35.390Z,30.33
2018-11-10T08:09:04.067Z,32.50
2018-11-10T08:11:32.000Z,29.43
2018-11-10T08:13:59.929Z,29.27
2018-11-10T08:16:27.871Z,30.30
2018-11-10T08:18:55.802Z,27.30
2018-11-10T08:21:23.820Z,28.00
2018-11-10T08:23:51.725Z,29.13
2018-11-10T08:26:19.771Z,28.27
2018-11-10T08:28:47.842Z,28.60
2018-11-10T08:31:16.739Z,29.40
2018-11-10T08:33:44.564Z,29.27
2018-11-10T08:36:12.508Z,27.50
2018-11-10T08:38:40.431Z,29.00
2018-11-10T08:41:08.404Z,28.43
2018-11-10T08:43:36.362Z,26.67
2018-11-10T08:46:04.606Z,25.80
2018-11-10T08:48:32.538Z,20.83
2018-11-10T08:51:00.499Z,20.57
2018-11-10T08:53:28.524Z,20.37
2018-11-10T08:55:56.453Z,19.90
2018-11-10T08:58:25.127Z,18.40
2018-11-10T09:00:53.065Z,16.80
2018-11-10T09:03:21.079Z,18.00
2018-11-10T09:05:49.107Z,19.00
2018-11-10T09:08:17.141Z,18.60
2018-11-10T09:10:45.132Z,18.67
2018-11-10T09:13:13.119Z,18.53
2018-11-10T09:15:41.097Z,18.13
2018-11-10T09:18:09.036Z,18.70
2018-11-10T09:20:37.125Z,18.77
2018-11-10T09:23:05.107Z,17.63
2018-11-10T09:25:33.374Z,18.80
2018-11-10T09:28:01.347Z,20.53
2018-11-10T09:30:29.255Z,19.13
2018-11-10T09:32:57.224Z,18.07
2018-11-10T09:35:25.190Z,20.93
2018-11-10T09:37:53.280Z,19.97
2018-11-10T09:40:21.219Z,21.53
2018-11-10T09:42:49.605Z,20.87
2018-11-10T09:45:17.791Z,21.40
2018-11-10T09:47:45.815Z,18.80
2018-11-10T09:50:16.718Z,20.33
2018-11-10T09:53:00.250Z,21.37
2018-11-10T09:55:28.296Z,21.37
2018-11-10T09:57:56.276Z,19.77
2018-11-10T10:00:24.217Z,22.70
2018-11-10T10:02:52.416Z,23.20
2018-11-10T10:05:20.260Z,21.20
2018-11-10T10:07:48.349Z,21.60
2018-11-10T10:10:17.497Z,21.57
2018-11-10T10:12:46.816Z,20.47
2018-11-10T10:15:17.855Z,20.20
2018-11-10T10:17:46.260Z,19.80
2018-11-10T10:20:15.582Z,21.80
2018-11-10T10:25:47.169Z,19.87
2018-11-10T10:28:15.147Z,21.50
2018-11-10T10:30:44.312Z,20.20
2018-11-10T10:33:12.314Z,19.57
2018-11-10T10:35:40.489Z,19.17
2018-11-10T10:38:08.283Z,20.53
2018-11-10T10:40:36.223Z,20.53
2018-11-10T10:43:04.261Z,18.73
2018-11-10T10:45:32.189Z,18.87
2018-11-10T10:48:00.130Z,19.13
2018-11-10T10:50:28.141Z,20.83
2018-11-10T10:52:56.135Z,20.40
2018-11-10T10:55:24.089Z,19.80
2018-11-10T10:57:52.063Z,21.90
2018-11-10T11:00:25.944Z,20.50
2018-11-10T11:03:57.569Z,20.63
2018-11-10T11:06:25.550Z,19.47
2018-11-10T11:08:53.541Z,20.20
2018-11-10T11:11:21.493Z,20.57
2018-11-10T11:13:49.499Z,20.50
2018-11-10T11:16:17.487Z,21.07
2018-11-10T11:18:45.472Z,20.70
2018-11-10T11:21:13.510Z,20.70
2018-11-10T11:23:41.428Z,18.57
2018-11-10T11:26:09.387Z,20.57
2018-11-10T11:28:37.326Z,21.33
2018-11-10T11:31:05.287Z,19.40
2018-11-10T11:33:33.293Z,21.20
2018-11-10T11:36:01.260Z,19.93
2018-11-10T11:38:29.223Z,21.33
2018-11-10T11:40:57.295Z,19.60
2018-11-10T11:43:25.286Z,19.23
2018-11-10T11:45:53.239Z,18.77
2018-11-10T11:48:21.199Z,19.93
2018-11-10T11:50:49.201Z,20.27
2018-11-10T11:53:17.142Z,20.50
2018-11-10T11:55:45.180Z,19.20
2018-11-10T11:58:13.325Z,17.77
2018-11-10T12:00:41.206Z,17.50
2018-11-10T12:03:09.255Z,16.73
2018-11-10T12:05:37.296Z,19.23
2018-11-10T12:08:05.399Z,16.80
2018-11-10T12:10:33.407Z,15.33
2018-11-10T12:13:01.444Z,16.10
2018-11-10T12:15:29.512Z,14.57
2018-11-10T12:17:57.485Z,14.27
2018-11-10T12:20:27.587Z,14.70
2018-11-10T12:22:55.534Z,14.17
2018-11-10T12:25:23.525Z,13.50
2018-11-10T12:27:51.516Z,14.20
2018-11-10T12:30:19.469Z,12.93
2018-11-10T12:32:47.471Z,13.23
2018-11-10T12:35:15.437Z,11.37
2018-11-10T12:37:43.755Z,11.77
2018-11-10T12:40:12.751Z,11.90
2018-11-10T12:42:40.816Z,11.73
2018-11-10T12:45:09.895Z,10.40
2018-11-10T12:47:38.657Z,11.60
2018-11-10T12:50:07.479Z,11.50
2018-11-10T12:52:35.405Z,10.87
2018-11-10T12:55:03.762Z,10.77
2018-11-10T12:57:31.828Z,10.53
2018-11-10T12:59:59.866Z,10.43
2018-11-10T13:02:27.909Z,10.70
2018-11-10T13:04:55.934Z,10.87
2018-11-10T13:07:23.933Z,10.10
2018-11-10T13:09:51.999Z,9.70
2018-11-10T13:12:19.973Z,10.90
2018-11-10T13:14:47.961Z,9.47
2018-11-10T13:17:16.009Z,10.23
2018-11-10T13:19:43.950Z,9.70
2018-11-10T13:22:11.912Z,10.30
2018-11-10T13:24:39.922Z,9.77
2018-11-10T13:27:07.966Z,10.00
2018-11-10T13:29:35.912Z,11.00
2018-11-10T13:32:04.232Z,10.00
2018-11-10T13:34:32.199Z,10.83
2018-11-10T13:37:00.217Z,11.70
2018-11-10T13:39:28.240Z,11.10
2018-11-10T13:41:56.240Z,11.63
2018-11-10T13:44:24.270Z,11.27
2018-11-10T13:46:52.236Z,10.97
2018-11-10T13:49:20.199Z,10.07
2018-11-10T13:51:48.418Z,10.00
2018-11-10T13:54:16.134Z,11.27
2018-11-10T13:56:44.188Z,11.00
2018-11-10T13:59:12.211Z,12.13
2018-11-10T14:01:40.177Z,11.37
2018-11-10T14:04:08.165Z,11.70
2018-11-10T14:06:36.155Z,12.87
2018-11-10T14:09:05.376Z,14.07
2018-11-10T14:11:33.463Z,10.70
2018-11-10T14:14:01.445Z,11.37
2018-11-10T14:16:29.488Z,11.27
2018-11-10T14:18:57.514Z,11.70
2018-11-10T14:21:25.656Z,12.10
2018-11-10T14:23:53.623Z,11.43
2018-11-10T14:26:21.674Z,11.23
2018-11-10T14:28:49.706Z,11.20
2018-11-10T14:31:17.704Z,11.63
2018-11-10T14:33:45.762Z,12.43
2018-11-10T14:36:13.731Z,11.70
2018-11-10T14:38:41.734Z,10.90
2018-11-10T14:41:09.757Z,12.60
2018-11-10T14:43:37.719Z,11.10
2018-11-10T14:46:05.719Z,12.17
2018-11-10T14:48:33.746Z,10.93
2018-11-10T14:51:01.744Z,11.67
2018-11-10T14:53:29.730Z,10.43
2018-11-10T14:55:57.776Z,11.47
2018-11-10T14:58:25.811Z,11.90
2018-11-10T15:00:53.842Z,11.50
2018-11-10T15:03:21.822Z,11.80
2018-11-10T15:05:49.906Z,13.17
2018-11-10T15:08:17.812Z,12.57
2018-11-10T15:10:45.834Z,13.40
2018-11-10T15:13:13.853Z,12.70
2018-11-10T15:15:41.828Z,13.20
2018-11-10T15:18:09.881Z,12.13
2018-11-10T15:20:37.725Z,12.10
2018-11-10T15:23:06.275Z,12.30
2018-11-10T15:25:34.280Z,11.50
2018-11-10T15:28:02.215Z,12.60
2018-11-10T15:30:30.234Z,12.40
2018-11-10T15:32:58.250Z,12.10
2018-11-10T15:35:26.198Z,12.00
2018-11-10T15:37:54.177Z,13.20
2018-11-10T15:40:22.866Z,13.97
2018-11-10T15:42:50.875Z,14.00
2018-11-10T15:45:19.606Z,13.90
2018-11-10T15:47:47.585Z,13.20
2018-11-10T15:50:16.483Z,12.40
2018-11-10T15:52:44.456Z,14.10
2018-11-10T15:55:13.845Z,13.83
2018-11-10T15:57:42.667Z,15.10
2018-11-10T16:00:13.442Z,15.10
2018-11-10T16:02:41.795Z,14.10
2018-11-10T16:05:10.759Z,14.50
2018-11-10T16:07:39.141Z,15.47
2018-11-10T16:10:07.231Z,16.47
2018-11-10T16:12:35.317Z,15.63
2018-11-10T16:15:03.512Z,16.27
2018-11-10T16:17:31.548Z,15.47
2018-11-10T16:19:59.565Z,16.20
2018-11-10T16:22:27.545Z,16.40
2018-11-10T16:24:55.527Z,15.10
2018-11-10T16:27:23.743Z,16.10
2018-11-10T16:29:51.763Z,16.07
2018-11-10T16:32:19.792Z,16.80
2018-11-10T16:34:47.789Z,16.27
2018-11-10T16:37:15.879Z,16.80
2018-11-10T16:39:43.846Z,16.80
2018-11-10T16:42:11.778Z,18.37
2018-11-10T16:44:40.396Z,19.47
2018-11-10T16:47:08.423Z,19.60
2018-11-10T16:49:36.346Z,19.17
2018-11-10T16:52:04.369Z,20.97
2018-11-10T16:54:32.367Z,20.60
2018-11-10T16:57:00.421Z,19.57
2018-11-10T16:59:28.436Z,20.70
2018-11-10T17:01:58.038Z,19.17
2018-11-10T17:04:25.990Z,21.27
2018-11-10T17:06:53.996Z,20.97
2018-11-10T17:09:21.929Z,21.47
2018-11-10T17:11:49.908Z,20.57
2018-11-10T17:14:17.952Z,21.70
2018-11-10T17:16:45.906Z,20.73
2018-11-10T17:19:13.914Z,19.27
2018-11-10T17:21:42.139Z,20.83
2018-11-10T17:24:10.065Z,18.43
2018-11-10T17:26:38.088Z,22.33
2018-11-10T17:29:06.227Z,19.70
2018-11-10T17:31:34.228Z,20.27
2018-11-10T17:34:02.252Z,21.07
2018-11-10T17:36:30.257Z,19.70
2018-11-10T17:38:58.427Z,19.63
2018-11-10T17:41:26.388Z,21.00
2018-11-10T17:43:54.347Z,19.97
2018-11-10T17:46:22.454Z,20.33
2018-11-10T17:48:50.476Z,21.23
2018-11-10T17:51:18.469Z,21.20
2018-11-10T17:53:46.452Z,20.87
2018-11-10T17:56:14.429Z,21.73
2018-11-10T17:58:42.464Z,22.90
2018-11-10T18:01:10.583Z,21.37
2018-11-10T18:03:38.654Z,22.27
2018-11-10T18:06:06.602Z,25.93
2018-11-10T18:08:34.719Z,25.17
2018-11-10T18:11:07.469Z,25.43
2018-11-10T18:13:39.340Z,25.90
2018-11-10T18:16:09.955Z,25.97
2018-11-10T18:18:45.147Z,24.30
2018-11-10T18:21:13.340Z,25.10
2018-11-10T18:23:41.481Z,24.07
2018-11-10T18:26:10.644Z,24.73
2018-11-10T18:28:38.758Z,24.63
2018-11-10T18:31:07.259Z,26.00
2018-11-10T18:33:35.471Z,25.83
2018-11-10T18:36:06.069Z,25.10
2018-11-10T18:38:34.866Z,26.00
2018-11-10T18:41:04.464Z,26.77
2018-11-10T18:43:34.227Z,24.77
2018-11-10T18:46:05.526Z,26.10
2018-11-10T18:48:37.917Z,25.85
2018-11-10T18:51:07.234Z,25.20
2018-11-10T18:53:35.553Z,26.40
2018-11-10T18:56:03.604Z,27.60
2018-11-10T18:58:31.601Z,27.30
2018-11-10T19:00:59.530Z,26.20
2018-11-10T19:03:27.556Z,27.17
2018-11-10T19:05:55.545Z,24.60
2018-11-10T19:08:23.579Z,26.65
2018-11-10T19:10:51.572Z,26.13
2018-11-10T19:13:19.535Z,29.10
2018-11-10T19:15:47.468Z,25.00
2018-11-10T19:18:15.439Z,26.33
2018-11-10T19:20:43.490Z,28.17
2018-11-10T19:23:11.566Z,26.00
2018-11-10T19:25:39.512Z,26.52
2018-11-10T19:28:07.545Z,27.20
2018-11-10T19:30:35.529Z,27.48
2018-11-10T19:33:03.476Z,26.00
2018-11-10T19:35:31.427Z,28.30
2018-11-10T19:37:59.413Z,27.60
2018-11-10T19:40:27.470Z,27.32
2018-11-10T19:42:55.451Z,27.57
2018-11-10T19:45:23.429Z,26.00
2018-11-10T19:47:51.464Z,26.55
2018-11-10T19:50:19.673Z,24.77
2018-11-10T19:52:47.603Z,26.35
2018-11-10T19:55:18.304Z,26.45
2018-11-10T19:57:46.321Z,26.40
2018-11-10T20:00:17.907Z,27.52
2018-11-10T20:02:45.977Z,26.60
2018-11-10T20:05:13.993Z,28.83
2018-11-10T20:07:42.168Z,26.93
2018-11-10T20:10:15.253Z,28.05
2018-11-10T20:12:43.650Z,28.30
2018-11-10T20:15:12.831Z,29.10
2018-11-10T20:17:41.439Z,27.73
2018-11-10T20:20:10.424Z,28.15
2018-11-10T20:22:38.587Z,29.05
2018-11-10T20:25:09.356Z,28.60
2018-11-10T20:27:37.408Z,29.70
2018-11-10T20:30:07.106Z,29.98
2018-11-10T20:32:35.133Z,29.37
2018-11-10T20:35:03.704Z,27.82
2018-11-10T20:37:31.840Z,27.90
2018-11-10T20:39:59.844Z,26.75
2018-11-10T20:42:27.835Z,28.77
2018-11-10T20:44:55.852Z,27.10
2018-11-10T20:47:23.846Z,26.20
2018-11-10T20:49:51.892Z,27.75
2018-11-10T20:52:19.896Z,29.95
2018-11-10T20:54:47.884Z,28.55
2018-11-10T20:57:15.945Z,29.65
2018-11-10T20:59:44.048Z,25.77
2018-11-10T21:02:12.052Z,28.23
2018-11-10T21:04:39.996Z,27.95
2018-11-10T21:07:07.943Z,28.40
2018-11-10T21:09:36.840Z,26.17
2018-11-10T21:12:04.858Z,24.67
2018-11-10T21:14:32.825Z,26.68
2018-11-10T21:17:00.823Z,27.82
2018-11-10T21:19:28.863Z,27.15
2018-11-10T21:21:56.881Z,27.62
2018-11-10T21:24:25.057Z,26.82
2018-11-10T21:26:53.048Z,28.62
2018-11-10T21:29:21.001Z,26.17
2018-11-10T21:31:49.022Z,26.05
2018-11-10T21:34:17.285Z,29.52
2018-11-10T21:36:45.602Z,28.47
2018-11-10T21:39:13.721Z,26.33
2018-11-10T21:41:41.655Z,26.35
2018-11-10T21:44:09.728Z,25.82
2018-11-10T21:46:40.299Z,25.32
2018-11-10T21:49:09.032Z,26.12
2018-11-10T21:51:37.005Z,26.93
2018-11-10T21:54:05.008Z,25.52
2018-11-10T21:56:32.995Z,24.60
2018-11-10T21:59:00.995Z,26.52
2018-11-10T22:01:28.991Z,27.32
2018-11-10T22:03:57.094Z,28.95
2018-11-10T22:06:25.373Z,27.98
2018-11-10T22:08:53.532Z,27.20
2018-11-10T22:11:21.440Z,26.85
2018-11-10T22:13:49.430Z,29.10
2018-11-10T22:16:18.310Z,27.20
2018-11-10T22:18:47.276Z,25.90
2018-11-10T22:21:15.257Z,27.60
2018-11-10T22:23:43.289Z,26.35
2018-11-10T22:26:18.313Z,27.02
2018-11-10T22:28:47.347Z,26.95
2018-11-10T22:31:15.498Z,25.85
2018-11-10T22:33:43.555Z,28.62
2018-11-10T22:36:12.205Z,26.15
2018-11-10T22:38:40.167Z,25.57
2018-11-10T22:41:08.161Z,27.40
2018-11-10T22:43:36.247Z,27.48
2018-11-10T22:46:04.360Z,29.07
2018-11-10T22:48:32.479Z,28.05
2018-11-10T22:51:00.517Z,26.10
2018-11-10T22:53:29.272Z,26.17
2018-11-10T22:55:58.127Z,27.02
2018-11-10T22:58:26.207Z,25.35
2018-11-10T23:01:00.356Z,26.85
2018-11-10T23:03:28.430Z,27.52
2018-11-10T23:05:56.951Z,29.35
2018-11-10T23:08:25.755Z,30.62
2018-11-10T23:10:56.123Z,29.00
2018-11-10T23:13:24.734Z,27.25
2018-11-10T23:15:52.685Z,26.48
2018-11-10T23:18:22.647Z,27.37
2018-11-10T23:20:50.598Z,26.85
2018-11-10T23:23:18.901Z,26.40
2018-11-10T23:25:47.665Z,25.00
2018-11-10T23:28:15.650Z,25.88
2018-11-10T23:30:44.474Z,24.47
2018-11-10T23:33:13.197Z,25.72
2018-11-10T23:35:41.212Z,29.27
2018-11-10T23:38:10.345Z,27.15
2018-11-10T23:40:39.336Z,28.40
2018-11-10T23:43:08.058Z,24.80
2018-11-10T23:45:36.043Z,27.77
2018-11-10T23:48:05.255Z,25.68
2018-11-10T23:50:33.262Z,25.72
2018-11-10T23:53:01.468Z,27.45
2018-11-10T23:55:30.790Z,26.55
2018-11-10T23:57:59.487Z,27.32
